Hall Beach, Canada
Current Conditions -  °F | °C
As of 8:00 PM on Friday 24 Oct 2014 (Local Time) from CYUX Reporting Station
Blowing Snow Blowing Snow  
Wind Chill: -22°   Ceiling: Unl
Heat Index: -2°   Visibility: 15mi
Dew Point: -6°   Wind: 15mph
Humidity: 85%   Direction: 310°NW
Pressure: 30.27"   Gusts: NA
Location:  68.78°N, 81.22°W
Report Text: CYUX 250000Z 31013KT 15SM DRSN SKC M19/M21 A3027 RMK -16.9/-20.5/0.0/0 MEDIUM PACK LST STFD OB/NXT 251200Z PRESFR SLP252
Loading
Personal Weather Stations






























Interactive Weather Map
Tropical Storm Tracking
New forecast layout! Learn more

10-Day Weather Forecast

Advertisements
Track Severe Weather on mobile